sensor_id;sensor_type;location;lat;lon;timestamp;P1;durP1;ratioP1;P2;durP2;ratioP2
20861;SDS011;10591;52.532;13.348;2023-01-31T00:01:52;14.13;;;3.77;;
20861;SDS011;10591;52.532;13.348;2023-01-31T00:04:22;13.53;;;3.50;;
20861;SDS011;10591;52.532;13.348;2023-01-31T00:06:59;11.60;;;3.10;;
20861;SDS011;10591;52.532;13.348;2023-01-31T00:09:29;10.53;;;2.77;;
20861;SDS011;10591;52.532;13.348;2023-01-31T00:12:00;13.70;;;3.40;;
20861;SDS011;10591;52.532;13.348;2023-01-31T00:14:32;10.23;;;3.47;;
20861;SDS011;10591;52.532;13.348;2023-01-31T00:17:03;17.50;;;4.53;;
20861;SDS011;10591;52.532;13.348;2023-01-31T00:19:35;14.40;;;3.07;;
20861;SDS011;10591;52.532;13.348;2023-01-31T00:22:07;8.70;;;2.83;;
20861;SDS011;10591;52.532;13.348;2023-01-31T00:24:37;13.17;;;3.23;;
20861;SDS011;10591;52.532;13.348;2023-01-31T00:27:11;13.97;;;3.07;;
20861;SDS011;10591;52.532;13.348;2023-01-31T00:29:42;9.30;;;2.83;;
20861;SDS011;10591;52.532;13.348;2023-01-31T00:32:13;13.20;;;3.03;;
20861;SDS011;10591;52.532;13.348;2023-01-31T00:34:46;9.27;;;2.60;;
20861;SDS011;10591;52.532;13.348;2023-01-31T00:37:17;10.23;;;2.53;;
20861;SDS011;10591;52.532;13.348;2023-01-31T00:39:48;9.83;;;2.67;;
20861;SDS011;10591;52.532;13.348;2023-01-31T00:42:19;7.60;;;2.47;;
20861;SDS011;10591;52.532;13.348;2023-01-31T00:44:52;10.27;;;2.63;;
20861;SDS011;10591;52.532;13.348;2023-01-31T00:47:25;8.27;;;2.73;;
20861;SDS011;10591;52.532;13.348;2023-01-31T00:49:56;6.37;;;2.70;;
20861;SDS011;10591;52.532;13.348;2023-01-31T00:52:26;11.70;;;3.00;;
20861;SDS011;10591;52.532;13.348;2023-01-31T00:54:59;11.83;;;2.70;;
20861;SDS011;10591;52.532;13.348;2023-01-31T00:57:31;8.13;;;2.63;;
20861;SDS011;10591;52.532;13.348;2023-01-31T01:00:03;10.73;;;2.60;;
20861;SDS011;10591;52.532;13.348;2023-01-31T01:02:35;8.10;;;3.07;;
20861;SDS011;10591;52.532;13.348;2023-01-31T01:05:06;8.30;;;2.83;;
20861;SDS011;10591;52.532;13.348;2023-01-31T01:07:37;8.20;;;2.40;;
20861;SDS011;10591;52.532;13.348;2023-01-31T01:10:10;15.23;;;3.20;;
20861;SDS011;10591;52.532;13.348;2023-01-31T01:12:41;7.30;;;3.10;;
20861;SDS011;10591;52.532;13.348;2023-01-31T01:15:11;7.67;;;2.60;;
20861;SDS011;10591;52.532;13.348;2023-01-31T01:17:45;11.53;;;2.80;;
20861;SDS011;10591;52.532;13.348;2023-01-31T01:20:16;12.03;;;2.30;;
20861;SDS011;10591;52.532;13.348;2023-01-31T01:22:47;10.13;;;2.83;;
20861;SDS011;10591;52.532;13.348;2023-01-31T01:25:18;10.60;;;2.37;;
20861;SDS011;10591;52.532;13.348;2023-01-31T01:27:49;13.67;;;2.93;;
20861;SDS011;10591;52.532;13.348;2023-01-31T01:30:20;11.10;;;2.83;;
20861;SDS011;10591;52.532;13.348;2023-01-31T01:32:53;14.40;;;3.17;;
20861;SDS011;10591;52.532;13.348;2023-01-31T01:35:25;13.23;;;3.10;;
20861;SDS011;10591;52.532;13.348;2023-01-31T01:37:56;9.47;;;2.33;;
20861;SDS011;10591;52.532;13.348;2023-01-31T01:40:33;9.47;;;2.43;;
20861;SDS011;10591;52.532;13.348;2023-01-31T01:43:04;11.73;;;2.77;;
20861;SDS011;10591;52.532;13.348;2023-01-31T01:45:37;11.80;;;2.23;;
20861;SDS011;10591;52.532;13.348;2023-01-31T01:48:10;10.17;;;2.50;;
20861;SDS011;10591;52.532;13.348;2023-01-31T01:50:45;8.33;;;2.10;;
20861;SDS011;10591;52.532;13.348;2023-01-31T01:53:18;8.43;;;2.37;;
20861;SDS011;10591;52.532;13.348;2023-01-31T01:55:55;8.57;;;2.47;;
20861;SDS011;10591;52.532;13.348;2023-01-31T01:58:30;9.47;;;2.37;;
20861;SDS011;10591;52.532;13.348;2023-01-31T02:01:05;9.87;;;2.30;;
20861;SDS011;10591;52.532;13.348;2023-01-31T02:03:36;9.10;;;2.63;;
20861;SDS011;10591;52.532;13.348;2023-01-31T02:06:08;8.43;;;2.27;;
20861;SDS011;10591;52.532;13.348;2023-01-31T02:08:39;11.30;;;2.50;;
20861;SDS011;10591;52.532;13.348;2023-01-31T02:13:57;7.67;;;2.30;;
20861;SDS011;10591;52.532;13.348;2023-01-31T02:16:28;9.43;;;2.97;;
20861;SDS011;10591;52.532;13.348;2023-01-31T02:18:59;5.60;;;2.57;;
20861;SDS011;10591;52.532;13.348;2023-01-31T02:35:48;9.53;;;2.00;;
20861;SDS011;10591;52.532;13.348;2023-01-31T02:39:00;8.53;;;2.50;;
20861;SDS011;10591;52.532;13.348;2023-01-31T02:41:49;6.33;;;2.60;;
20861;SDS011;10591;52.532;13.348;2023-01-31T02:44:30;11.00;;;2.50;;
20861;SDS011;10591;52.532;13.348;2023-01-31T02:47:23;10.30;;;2.60;;
20861;SDS011;10591;52.532;13.348;2023-01-31T02:50:13;9.20;;;2.43;;
20861;SDS011;10591;52.532;13.348;2023-01-31T02:55:37;7.70;;;2.40;;
20861;SDS011;10591;52.532;13.348;2023-01-31T02:58:31;9.00;;;2.87;;
20861;SDS011;10591;52.532;13.348;2023-01-31T03:01:04;6.13;;;2.17;;
20861;SDS011;10591;52.532;13.348;2023-01-31T03:03:38;8.50;;;1.93;;
20861;SDS011;10591;52.532;13.348;2023-01-31T03:09:01;6.60;;;2.40;;
20861;SDS011;10591;52.532;13.348;2023-01-31T03:11:36;10.60;;;2.27;;
20861;SDS011;10591;52.532;13.348;2023-01-31T03:17:03;11.13;;;2.20;;
20861;SDS011;10591;52.532;13.348;2023-01-31T03:20:11;7.10;;;3.00;;
20861;SDS011;10591;52.532;13.348;2023-01-31T03:22:53;11.40;;;2.87;;
20861;SDS011;10591;52.532;13.348;2023-01-31T03:25:22;10.83;;;2.20;;
20861;SDS011;10591;52.532;13.348;2023-01-31T03:27:59;12.23;;;2.63;;
20861;SDS011;10591;52.532;13.348;2023-01-31T03:30:42;10.23;;;2.47;;
20861;SDS011;10591;52.532;13.348;2023-01-31T03:33:25;6.10;;;2.33;;
20861;SDS011;10591;52.532;13.348;2023-01-31T03:42:05;10.30;;;2.57;;
20861;SDS011;10591;52.532;13.348;2023-01-31T03:47:34;8.07;;;1.90;;
20861;SDS011;10591;52.532;13.348;2023-01-31T03:50:16;8.47;;;2.17;;
20861;SDS011;10591;52.532;13.348;2023-01-31T03:53:04;7.67;;;1.97;;
20861;SDS011;10591;52.532;13.348;2023-01-31T03:58:23;10.50;;;2.30;;
20861;SDS011;10591;52.532;13.348;2023-01-31T04:01:01;10.83;;;2.30;;
20861;SDS011;10591;52.532;13.348;2023-01-31T04:03:33;6.03;;;2.23;;
20861;SDS011;10591;52.532;13.348;2023-01-31T04:06:12;7.50;;;2.13;;
20861;SDS011;10591;52.532;13.348;2023-01-31T04:08:48;8.30;;;2.30;;
20861;SDS011;10591;52.532;13.348;2023-01-31T04:11:20;6.97;;;2.20;;
20861;SDS011;10591;52.532;13.348;2023-01-31T04:13:56;12.43;;;2.13;;
20861;SDS011;10591;52.532;13.348;2023-01-31T04:16:28;9.23;;;2.43;;
20861;SDS011;10591;52.532;13.348;2023-01-31T04:19:03;9.47;;;2.00;;
20861;SDS011;10591;52.532;13.348;2023-01-31T04:21:35;7.03;;;2.13;;
20861;SDS011;10591;52.532;13.348;2023-01-31T04:24:07;14.33;;;2.77;;
20861;SDS011;10591;52.532;13.348;2023-01-31T04:26:42;12.33;;;2.90;;
20861;SDS011;10591;52.532;13.348;2023-01-31T04:29:17;9.70;;;2.73;;
20861;SDS011;10591;52.532;13.348;2023-01-31T04:31:49;11.73;;;3.03;;
20861;SDS011;10591;52.532;13.348;2023-01-31T04:34:21;10.37;;;2.60;;
20861;SDS011;10591;52.532;13.348;2023-01-31T04:36:53;8.77;;;3.07;;
20861;SDS011;10591;52.532;13.348;2023-01-31T04:39:25;11.83;;;2.77;;
20861;SDS011;10591;52.532;13.348;2023-01-31T04:42:16;11.23;;;2.43;;
20861;SDS011;10591;52.532;13.348;2023-01-31T04:44:51;10.47;;;2.40;;
20861;SDS011;10591;52.532;13.348;2023-01-31T04:47:25;12.63;;;2.40;;
20861;SDS011;10591;52.532;13.348;2023-01-31T04:49:55;12.10;;;2.53;;
20861;SDS011;10591;52.532;13.348;2023-01-31T04:52:28;8.97;;;2.47;;
20861;SDS011;10591;52.532;13.348;2023-01-31T04:54:59;5.73;;;2.37;;
20861;SDS011;10591;52.532;13.348;2023-01-31T04:57:29;12.53;;;2.70;;
20861;SDS011;10591;52.532;13.348;2023-01-31T05:00:00;7.53;;;2.67;;
20861;SDS011;10591;52.532;13.348;2023-01-31T05:02:32;6.67;;;2.73;;
20861;SDS011;10591;52.532;13.348;2023-01-31T05:05:05;13.47;;;2.87;;
20861;SDS011;10591;52.532;13.348;2023-01-31T05:07:38;11.97;;;2.87;;
20861;SDS011;10591;52.532;13.348;2023-01-31T05:10:11;9.33;;;3.17;;
20861;SDS011;10591;52.532;13.348;2023-01-31T05:12:43;8.43;;;2.43;;
20861;SDS011;10591;52.532;13.348;2023-01-31T05:15:17;8.10;;;2.50;;
20861;SDS011;10591;52.532;13.348;2023-01-31T05:17:51;7.97;;;2.50;;
20861;SDS011;10591;52.532;13.348;2023-01-31T05:20:27;10.17;;;2.50;;
20861;SDS011;10591;52.532;13.348;2023-01-31T05:23:05;10.60;;;2.80;;
20861;SDS011;10591;52.532;13.348;2023-01-31T05:25:37;10.17;;;2.80;;
20861;SDS011;10591;52.532;13.348;2023-01-31T05:28:10;7.23;;;2.53;;
20861;SDS011;10591;52.532;13.348;2023-01-31T05:30:45;6.63;;;2.40;;
20861;SDS011;10591;52.532;13.348;2023-01-31T05:33:21;11.33;;;2.90;;
20861;SDS011;10591;52.532;13.348;2023-01-31T05:35:56;9.23;;;2.33;;
20861;SDS011;10591;52.532;13.348;2023-01-31T05:38:31;17.27;;;3.80;;
20861;SDS011;10591;52.532;13.348;2023-01-31T05:41:01;5.97;;;2.20;;
20861;SDS011;10591;52.532;13.348;2023-01-31T05:43:34;8.63;;;2.40;;
20861;SDS011;10591;52.532;13.348;2023-01-31T05:46:08;7.60;;;2.10;;
20861;SDS011;10591;52.532;13.348;2023-01-31T05:48:40;9.10;;;2.87;;
20861;SDS011;10591;52.532;13.348;2023-01-31T05:51:12;9.57;;;2.47;;
20861;SDS011;10591;52.532;13.348;2023-01-31T05:53:44;11.03;;;2.60;;
20861;SDS011;10591;52.532;13.348;2023-01-31T05:56:18;9.83;;;2.50;;
20861;SDS011;10591;52.532;13.348;2023-01-31T05:58:52;11.37;;;2.90;;
20861;SDS011;10591;52.532;13.348;2023-01-31T06:01:26;14.00;;;3.40;;
20861;SDS011;10591;52.532;13.348;2023-01-31T06:03:59;12.33;;;3.17;;
20861;SDS011;10591;52.532;13.348;2023-01-31T06:06:32;11.30;;;3.10;;
20861;SDS011;10591;52.532;13.348;2023-01-31T06:09:04;8.87;;;3.23;;
20861;SDS011;10591;52.532;13.348;2023-01-31T06:11:39;8.57;;;2.83;;
20861;SDS011;10591;52.532;13.348;2023-01-31T06:14:11;11.90;;;3.10;;
20861;SDS011;10591;52.532;13.348;2023-01-31T06:16:45;13.20;;;3.57;;
20861;SDS011;10591;52.532;13.348;2023-01-31T06:19:17;10.00;;;2.80;;
20861;SDS011;10591;52.532;13.348;2023-01-31T06:21:51;9.23;;;3.00;;
20861;SDS011;10591;52.532;13.348;2023-01-31T06:24:23;12.40;;;2.90;;
20861;SDS011;10591;52.532;13.348;2023-01-31T06:26:53;12.93;;;3.07;;
20861;SDS011;10591;52.532;13.348;2023-01-31T06:29:26;10.90;;;3.40;;
20861;SDS011;10591;52.532;13.348;2023-01-31T06:31:58;10.03;;;3.10;;
20861;SDS011;10591;52.532;13.348;2023-01-31T06:34:31;11.57;;;2.97;;
20861;SDS011;10591;52.532;13.348;2023-01-31T06:37:02;13.63;;;3.40;;
20861;SDS011;10591;52.532;13.348;2023-01-31T06:39:33;8.90;;;2.87;;
20861;SDS011;10591;52.532;13.348;2023-01-31T06:42:03;12.67;;;2.87;;
20861;SDS011;10591;52.532;13.348;2023-01-31T06:44:37;9.63;;;2.63;;
20861;SDS011;10591;52.532;13.348;2023-01-31T06:47:10;9.60;;;2.50;;
20861;SDS011;10591;52.532;13.348;2023-01-31T06:49:41;11.10;;;3.00;;
20861;SDS011;10591;52.532;13.348;2023-01-31T06:52:12;11.87;;;2.50;;
20861;SDS011;10591;52.532;13.348;2023-01-31T06:54:43;10.43;;;2.77;;
20861;SDS011;10591;52.532;13.348;2023-01-31T06:57:13;10.93;;;3.23;;
20861;SDS011;10591;52.532;13.348;2023-01-31T06:59:45;11.00;;;3.03;;
20861;SDS011;10591;52.532;13.348;2023-01-31T07:02:16;7.57;;;2.70;;
20861;SDS011;10591;52.532;13.348;2023-01-31T07:04:48;11.63;;;2.87;;
20861;SDS011;10591;52.532;13.348;2023-01-31T07:07:19;9.67;;;3.20;;
20861;SDS011;10591;52.532;13.348;2023-01-31T07:09:51;5.10;;;1.90;;
20861;SDS011;10591;52.532;13.348;2023-01-31T07:12:26;7.80;;;2.80;;
20861;SDS011;10591;52.532;13.348;2023-01-31T07:14:58;10.43;;;3.03;;
20861;SDS011;10591;52.532;13.348;2023-01-31T07:17:29;8.93;;;2.80;;
20861;SDS011;10591;52.532;13.348;2023-01-31T07:20:02;8.67;;;2.60;;
20861;SDS011;10591;52.532;13.348;2023-01-31T07:22:34;8.77;;;2.73;;
20861;SDS011;10591;52.532;13.348;2023-01-31T07:25:09;6.33;;;2.60;;
20861;SDS011;10591;52.532;13.348;2023-01-31T07:27:41;9.33;;;3.13;;
20861;SDS011;10591;52.532;13.348;2023-01-31T07:30:11;9.37;;;2.57;;
20861;SDS011;10591;52.532;13.348;2023-01-31T07:32:43;10.20;;;2.70;;
20861;SDS011;10591;52.532;13.348;2023-01-31T07:35:15;10.20;;;2.97;;
20861;SDS011;10591;52.532;13.348;2023-01-31T07:37:47;7.93;;;2.83;;
20861;SDS011;10591;52.532;13.348;2023-01-31T07:40:19;7.53;;;2.50;;
20861;SDS011;10591;52.532;13.348;2023-01-31T07:42:50;7.70;;;3.07;;
20861;SDS011;10591;52.532;13.348;2023-01-31T07:45:25;9.03;;;2.53;;
20861;SDS011;10591;52.532;13.348;2023-01-31T07:47:57;11.73;;;2.90;;
20861;SDS011;10591;52.532;13.348;2023-01-31T07:50:29;7.43;;;2.37;;
20861;SDS011;10591;52.532;13.348;2023-01-31T07:53:02;10.67;;;2.90;;
20861;SDS011;10591;52.532;13.348;2023-01-31T07:55:37;13.30;;;2.80;;
20861;SDS011;10591;52.532;13.348;2023-01-31T07:58:09;9.80;;;2.67;;
20861;SDS011;10591;52.532;13.348;2023-01-31T08:00:42;8.37;;;3.17;;
20861;SDS011;10591;52.532;13.348;2023-01-31T08:03:30;11.53;;;2.97;;
20861;SDS011;10591;52.532;13.348;2023-01-31T08:06:11;13.40;;;2.97;;
20861;SDS011;10591;52.532;13.348;2023-01-31T08:08:43;8.50;;;3.03;;
20861;SDS011;10591;52.532;13.348;2023-01-31T08:11:16;8.77;;;2.60;;
20861;SDS011;10591;52.532;13.348;2023-01-31T08:13:48;14.50;;;3.20;;
20861;SDS011;10591;52.532;13.348;2023-01-31T08:16:21;8.40;;;3.10;;
20861;SDS011;10591;52.532;13.348;2023-01-31T08:18:55;9.17;;;2.80;;
20861;SDS011;10591;52.532;13.348;2023-01-31T08:21:27;10.10;;;2.43;;
20861;SDS011;10591;52.532;13.348;2023-01-31T08:24:03;5.83;;;2.63;;
20861;SDS011;10591;52.532;13.348;2023-01-31T08:26:36;7.43;;;2.53;;
20861;SDS011;10591;52.532;13.348;2023-01-31T08:29:10;11.57;;;2.63;;
20861;SDS011;10591;52.532;13.348;2023-01-31T08:31:43;8.93;;;2.93;;
20861;SDS011;10591;52.532;13.348;2023-01-31T08:34:15;11.40;;;2.70;;
20861;SDS011;10591;52.532;13.348;2023-01-31T08:36:50;9.93;;;2.40;;
20861;SDS011;10591;52.532;13.348;2023-01-31T08:39:21;7.50;;;3.27;;
20861;SDS011;10591;52.532;13.348;2023-01-31T08:41:52;11.97;;;3.00;;
20861;SDS011;10591;52.532;13.348;2023-01-31T08:44:24;8.23;;;3.20;;
20861;SDS011;10591;52.532;13.348;2023-01-31T08:46:55;9.77;;;3.07;;
20861;SDS011;10591;52.532;13.348;2023-01-31T08:52:11;11.80;;;2.93;;
20861;SDS011;10591;52.532;13.348;2023-01-31T08:54:44;8.70;;;2.90;;
20861;SDS011;10591;52.532;13.348;2023-01-31T08:57:18;10.50;;;2.70;;
20861;SDS011;10591;52.532;13.348;2023-01-31T08:59:53;9.03;;;2.90;;
20861;SDS011;10591;52.532;13.348;2023-01-31T09:02:25;11.47;;;2.70;;
20861;SDS011;10591;52.532;13.348;2023-01-31T09:04:57;9.93;;;3.27;;
20861;SDS011;10591;52.532;13.348;2023-01-31T09:07:33;9.93;;;2.87;;
20861;SDS011;10591;52.532;13.348;2023-01-31T09:10:04;11.67;;;2.57;;
20861;SDS011;10591;52.532;13.348;2023-01-31T09:12:39;9.33;;;2.67;;
20861;SDS011;10591;52.532;13.348;2023-01-31T09:15:11;10.07;;;2.30;;
20861;SDS011;10591;52.532;13.348;2023-01-31T09:17:46;10.87;;;2.90;;
20861;SDS011;10591;52.532;13.348;2023-01-31T09:20:34;11.43;;;2.80;;
20861;SDS011;10591;52.532;13.348;2023-01-31T09:23:06;14.30;;;2.70;;
20861;SDS011;10591;52.532;13.348;2023-01-31T09:25:37;11.20;;;3.23;;
20861;SDS011;10591;52.532;13.348;2023-01-31T09:28:11;9.83;;;3.10;;
20861;SDS011;10591;52.532;13.348;2023-01-31T09:30:45;9.53;;;3.50;;
20861;SDS011;10591;52.532;13.348;2023-01-31T09:33:18;10.47;;;3.10;;
20861;SDS011;10591;52.532;13.348;2023-01-31T09:35:56;12.73;;;2.97;;
20861;SDS011;10591;52.532;13.348;2023-01-31T09:38:33;12.73;;;2.90;;
20861;SDS011;10591;52.532;13.348;2023-01-31T09:44:02;11.63;;;3.37;;
20861;SDS011;10591;52.532;13.348;2023-01-31T09:46:38;8.93;;;3.13;;
20861;SDS011;10591;52.532;13.348;2023-01-31T09:49:15;11.60;;;3.20;;
20861;SDS011;10591;52.532;13.348;2023-01-31T09:51:53;11.13;;;3.77;;
20861;SDS011;10591;52.532;13.348;2023-01-31T09:54:28;9.00;;;3.20;;
20861;SDS011;10591;52.532;13.348;2023-01-31T10:08:16;13.23;;;2.97;;
20861;SDS011;10591;52.532;13.348;2023-01-31T10:10:55;11.37;;;3.73;;
20861;SDS011;10591;52.532;13.348;2023-01-31T10:13:38;10.40;;;3.20;;
20861;SDS011;10591;52.532;13.348;2023-01-31T10:16:18;13.70;;;3.43;;
20861;SDS011;10591;52.532;13.348;2023-01-31T10:19:10;11.87;;;2.70;;
20861;SDS011;10591;52.532;13.348;2023-01-31T10:21:41;6.90;;;2.90;;
20861;SDS011;10591;52.532;13.348;2023-01-31T10:24:15;11.70;;;3.40;;
20861;SDS011;10591;52.532;13.348;2023-01-31T10:26:50;9.00;;;3.10;;
20861;SDS011;10591;52.532;13.348;2023-01-31T10:29:32;8.93;;;3.10;;
20861;SDS011;10591;52.532;13.348;2023-01-31T10:34:55;13.10;;;3.13;;
20861;SDS011;10591;52.532;13.348;2023-01-31T10:37:36;10.20;;;3.73;;
20861;SDS011;10591;52.532;13.348;2023-01-31T10:40:13;10.43;;;3.33;;
20861;SDS011;10591;52.532;13.348;2023-01-31T10:42:52;11.67;;;3.03;;
20861;SDS011;10591;52.532;13.348;2023-01-31T10:45:26;10.77;;;4.00;;
20861;SDS011;10591;52.532;13.348;2023-01-31T10:53:38;13.33;;;3.53;;
20861;SDS011;10591;52.532;13.348;2023-01-31T10:56:35;7.87;;;3.10;;
20861;SDS011;10591;52.532;13.348;2023-01-31T10:59:29;7.73;;;2.50;;
20861;SDS011;10591;52.532;13.348;2023-01-31T11:02:08;13.13;;;3.63;;
20861;SDS011;10591;52.532;13.348;2023-01-31T11:04:49;12.93;;;3.53;;
20861;SDS011;10591;52.532;13.348;2023-01-31T11:07:22;11.67;;;3.60;;
20861;SDS011;10591;52.532;13.348;2023-01-31T11:09:54;10.17;;;3.00;;
20861;SDS011;10591;52.532;13.348;2023-01-31T11:13:01;14.20;;;3.43;;
20861;SDS011;10591;52.532;13.348;2023-01-31T11:15:17;12.93;;;3.37;;
20861;SDS011;10591;52.532;13.348;2023-01-31T11:17:52;13.60;;;3.53;;
20861;SDS011;10591;52.532;13.348;2023-01-31T11:20:43;9.93;;;3.62;;
20861;SDS011;10591;52.532;13.348;2023-01-31T11:23:08;12.60;;;3.43;;
20861;SDS011;10591;52.532;13.348;2023-01-31T11:25:45;19.87;;;4.57;;
20861;SDS011;10591;52.532;13.348;2023-01-31T11:30:54;14.20;;;4.53;;
20861;SDS011;10591;52.532;13.348;2023-01-31T11:36:17;13.90;;;4.25;;
20861;SDS011;10591;52.532;13.348;2023-01-31T11:38:50;12.80;;;4.50;;
20861;SDS011;10591;52.532;13.348;2023-01-31T11:41:32;11.23;;;4.40;;
20861;SDS011;10591;52.532;13.348;2023-01-31T11:44:12;12.57;;;4.73;;
20861;SDS011;10591;52.532;13.348;2023-01-31T11:46:43;14.27;;;5.30;;
20861;SDS011;10591;52.532;13.348;2023-01-31T11:49:22;9.43;;;4.70;;
20861;SDS011;10591;52.532;13.348;2023-01-31T11:51:55;9.13;;;5.00;;
20861;SDS011;10591;52.532;13.348;2023-01-31T11:54:28;10.67;;;4.50;;
20861;SDS011;10591;52.532;13.348;2023-01-31T11:57:01;13.23;;;4.53;;
20861;SDS011;10591;52.532;13.348;2023-01-31T11:59:33;11.18;;;5.12;;
20861;SDS011;10591;52.532;13.348;2023-01-31T12:02:04;11.53;;;4.87;;
20861;SDS011;10591;52.532;13.348;2023-01-31T12:04:39;10.47;;;4.73;;
20861;SDS011;10591;52.532;13.348;2023-01-31T12:07:22;13.33;;;4.57;;
20861;SDS011;10591;52.532;13.348;2023-01-31T12:09:56;12.87;;;5.07;;
20861;SDS011;10591;52.532;13.348;2023-01-31T12:12:28;13.97;;;5.07;;
20861;SDS011;10591;52.532;13.348;2023-01-31T12:15:01;12.97;;;5.13;;
20861;SDS011;10591;52.532;13.348;2023-01-31T12:17:36;8.38;;;5.05;;
20861;SDS011;10591;52.532;13.348;2023-01-31T12:20:17;10.83;;;4.80;;
20861;SDS011;10591;52.532;13.348;2023-01-31T12:29:25;17.85;;;5.55;;
20861;SDS011;10591;52.532;13.348;2023-01-31T12:31:24;12.23;;;4.63;;
20861;SDS011;10591;52.532;13.348;2023-01-31T12:34:05;15.93;;;4.97;;
20861;SDS011;10591;52.532;13.348;2023-01-31T12:40:42;12.73;;;5.33;;
20861;SDS011;10591;52.532;13.348;2023-01-31T12:42:45;11.63;;;5.30;;
20861;SDS011;10591;52.532;13.348;2023-01-31T12:45:33;18.90;;;5.30;;
20861;SDS011;10591;52.532;13.348;2023-01-31T12:56:54;11.43;;;6.37;;
20861;SDS011;10591;52.532;13.348;2023-01-31T12:59:43;15.20;;;6.33;;
20861;SDS011;10591;52.532;13.348;2023-01-31T13:02:26;14.97;;;6.40;;
20861;SDS011;10591;52.532;13.348;2023-01-31T13:05:06;13.53;;;6.30;;
20861;SDS011;10591;52.532;13.348;2023-01-31T13:08:00;12.87;;;6.43;;
20861;SDS011;10591;52.532;13.348;2023-01-31T13:10:38;15.63;;;7.07;;
20861;SDS011;10591;52.532;13.348;2023-01-31T13:13:15;14.93;;;7.33;;
20861;SDS011;10591;52.532;13.348;2023-01-31T13:15:46;14.13;;;7.77;;
20861;SDS011;10591;52.532;13.348;2023-01-31T13:18:17;16.10;;;8.23;;
20861;SDS011;10591;52.532;13.348;2023-01-31T13:21:01;16.37;;;7.50;;
20861;SDS011;10591;52.532;13.348;2023-01-31T13:23:45;15.40;;;7.78;;
20861;SDS011;10591;52.532;13.348;2023-01-31T13:26:22;13.10;;;8.00;;
20861;SDS011;10591;52.532;13.348;2023-01-31T13:29:15;12.07;;;7.70;;
20861;SDS011;10591;52.532;13.348;2023-01-31T13:34:40;14.50;;;7.55;;
20861;SDS011;10591;52.532;13.348;2023-01-31T13:37:27;17.63;;;7.90;;
20861;SDS011;10591;52.532;13.348;2023-01-31T13:40:01;16.23;;;7.93;;
20861;SDS011;10591;52.532;13.348;2023-01-31T13:42:34;11.17;;;7.20;;
20861;SDS011;10591;52.532;13.348;2023-01-31T13:45:05;11.50;;;7.00;;
20861;SDS011;10591;52.532;13.348;2023-01-31T13:47:43;14.83;;;7.67;;
20861;SDS011;10591;52.532;13.348;2023-01-31T13:50:37;11.67;;;7.17;;
20861;SDS011;10591;52.532;13.348;2023-01-31T13:53:16;12.90;;;7.83;;
20861;SDS011;10591;52.532;13.348;2023-01-31T13:55:47;12.07;;;6.70;;
20861;SDS011;10591;52.532;13.348;2023-01-31T13:58:21;9.23;;;6.40;;
20861;SDS011;10591;52.532;13.348;2023-01-31T14:00:57;11.00;;;6.73;;
20861;SDS011;10591;52.532;13.348;2023-01-31T14:03:29;10.70;;;6.95;;
20861;SDS011;10591;52.532;13.348;2023-01-31T14:06:02;14.37;;;6.80;;
20861;SDS011;10591;52.532;13.348;2023-01-31T14:16:41;9.85;;;6.17;;
20861;SDS011;10591;52.532;13.348;2023-01-31T14:32:47;6.67;;;5.67;;
20861;SDS011;10591;52.532;13.348;2023-01-31T14:35:55;7.27;;;5.73;;
20861;SDS011;10591;52.532;13.348;2023-01-31T14:52:40;7.93;;;6.57;;
20861;SDS011;10591;52.532;13.348;2023-01-31T14:58:11;8.43;;;6.97;;
20861;SDS011;10591;52.532;13.348;2023-01-31T15:00:47;9.90;;;7.00;;
20861;SDS011;10591;52.532;13.348;2023-01-31T15:03:46;8.43;;;6.47;;
20861;SDS011;10591;52.532;13.348;2023-01-31T15:08:46;7.97;;;6.97;;
20861;SDS011;10591;52.532;13.348;2023-01-31T15:14:23;8.77;;;6.73;;
20861;SDS011;10591;52.532;13.348;2023-01-31T15:19:53;9.87;;;7.57;;
20861;SDS011;10591;52.532;13.348;2023-01-31T15:22:26;9.40;;;7.57;;
20861;SDS011;10591;52.532;13.348;2023-01-31T15:25:00;9.57;;;7.37;;
20861;SDS011;10591;52.532;13.348;2023-01-31T15:27:34;8.37;;;7.47;;
20861;SDS011;10591;52.532;13.348;2023-01-31T15:30:12;9.97;;;7.47;;
20861;SDS011;10591;52.532;13.348;2023-01-31T15:32:53;10.67;;;7.77;;
20861;SDS011;10591;52.532;13.348;2023-01-31T15:35:33;9.20;;;7.53;;
20861;SDS011;10591;52.532;13.348;2023-01-31T15:38:08;10.23;;;8.63;;
20861;SDS011;10591;52.532;13.348;2023-01-31T15:41:06;11.00;;;8.53;;
20861;SDS011;10591;52.532;13.348;2023-01-31T15:43:41;11.15;;;8.20;;
20861;SDS011;10591;52.532;13.348;2023-01-31T15:46:21;14.07;;;8.70;;
20861;SDS011;10591;52.532;13.348;2023-01-31T15:48:59;10.32;;;8.58;;
20861;SDS011;10591;52.532;13.348;2023-01-31T15:51:31;10.50;;;8.80;;
20861;SDS011;10591;52.532;13.348;2023-01-31T15:54:03;11.37;;;8.73;;
20861;SDS011;10591;52.532;13.348;2023-01-31T15:56:36;11.20;;;8.73;;
20861;SDS011;10591;52.532;13.348;2023-01-31T15:59:13;10.90;;;8.30;;
20861;SDS011;10591;52.532;13.348;2023-01-31T16:01:46;11.63;;;8.38;;
20861;SDS011;10591;52.532;13.348;2023-01-31T16:04:18;11.87;;;8.90;;
20861;SDS011;10591;52.532;13.348;2023-01-31T16:06:49;11.13;;;8.20;;
20861;SDS011;10591;52.532;13.348;2023-01-31T16:09:24;10.70;;;8.80;;
20861;SDS011;10591;52.532;13.348;2023-01-31T16:11:57;10.10;;;9.07;;
20861;SDS011;10591;52.532;13.348;2023-01-31T16:14:30;12.37;;;9.77;;
20861;SDS011;10591;52.532;13.348;2023-01-31T16:17:02;13.57;;;9.40;;
20861;SDS011;10591;52.532;13.348;2023-01-31T16:19:34;12.10;;;9.78;;
20861;SDS011;10591;52.532;13.348;2023-01-31T16:22:23;14.13;;;9.57;;
20861;SDS011;10591;52.532;13.348;2023-01-31T16:25:03;13.53;;;9.63;;
20861;SDS011;10591;52.532;13.348;2023-01-31T16:27:36;12.53;;;9.27;;
20861;SDS011;10591;52.532;13.348;2023-01-31T16:30:15;11.37;;;8.97;;
20861;SDS011;10591;52.532;13.348;2023-01-31T16:32:47;12.78;;;10.13;;
20861;SDS011;10591;52.532;13.348;2023-01-31T16:35:27;13.13;;;9.83;;
20861;SDS011;10591;52.532;13.348;2023-01-31T16:38:14;12.35;;;10.38;;
20861;SDS011;10591;52.532;13.348;2023-01-31T16:40:36;14.27;;;10.83;;
20861;SDS011;10591;52.532;13.348;2023-01-31T16:46:00;11.30;;;9.70;;
20861;SDS011;10591;52.532;13.348;2023-01-31T16:48:37;15.33;;;10.27;;
20861;SDS011;10591;52.532;13.348;2023-01-31T16:54:28;13.60;;;10.27;;
20861;SDS011;10591;52.532;13.348;2023-01-31T16:59:38;14.65;;;10.32;;
20861;SDS011;10591;52.532;13.348;2023-01-31T17:02:21;13.73;;;10.47;;
20861;SDS011;10591;52.532;13.348;2023-01-31T17:04:55;12.70;;;9.90;;
20861;SDS011;10591;52.532;13.348;2023-01-31T17:07:32;16.60;;;10.30;;
20861;SDS011;10591;52.532;13.348;2023-01-31T17:10:06;13.27;;;10.47;;
20861;SDS011;10591;52.532;13.348;2023-01-31T17:12:38;16.03;;;10.87;;
20861;SDS011;10591;52.532;13.348;2023-01-31T17:15:15;13.88;;;10.88;;
20861;SDS011;10591;52.532;13.348;2023-01-31T17:17:48;14.03;;;10.63;;
20861;SDS011;10591;52.532;13.348;2023-01-31T17:20:20;15.00;;;10.90;;
20861;SDS011;10591;52.532;13.348;2023-01-31T17:22:51;14.60;;;10.63;;
20861;SDS011;10591;52.532;13.348;2023-01-31T17:25:29;13.28;;;10.20;;
20861;SDS011;10591;52.532;13.348;2023-01-31T17:28:03;15.53;;;10.73;;
20861;SDS011;10591;52.532;13.348;2023-01-31T17:30:36;13.40;;;10.60;;
20861;SDS011;10591;52.532;13.348;2023-01-31T17:33:10;15.83;;;10.97;;
20861;SDS011;10591;52.532;13.348;2023-01-31T17:35:43;14.57;;;10.43;;
20861;SDS011;10591;52.532;13.348;2023-01-31T17:38:16;13.37;;;10.43;;